createdAt,value
2022-10-06T00:04:09.976Z,12.93
2022-10-06T00:09:12.936Z,12.93
2022-10-06T00:14:15.851Z,12.91
2022-10-06T00:19:18.741Z,12.92
2022-10-06T00:24:21.646Z,12.87
2022-10-06T00:29:24.663Z,12.83
2022-10-06T00:34:27.659Z,12.75
2022-10-06T00:39:30.563Z,12.69
2022-10-06T00:44:33.363Z,12.59
2022-10-06T00:49:38.250Z,12.56
2022-10-06T00:54:41.733Z,12.51
2022-10-06T00:59:44.737Z,12.46
2022-10-06T01:04:58.304Z,12.37
2022-10-06T01:10:01.097Z,12.38
2022-10-06T01:15:05.086Z,12.34
2022-10-06T01:20:15.385Z,12.34
2022-10-06T01:25:19.530Z,12.32
2022-10-06T01:30:33.395Z,12.33
2022-10-06T01:35:36.298Z,12.35
2022-10-06T01:40:39.102Z,12.32
2022-10-06T01:45:42.003Z,12.27
2022-10-06T01:50:44.911Z,12.24
2022-10-06T01:55:48.016Z,12.22
2022-10-06T02:00:51.171Z,12.23
2022-10-06T02:05:57.333Z,12.25
2022-10-06T02:11:05.844Z,12.23
2022-10-06T02:16:09.616Z,12.26
2022-10-06T02:21:18.573Z,12.28
2022-10-06T02:26:21.516Z,12.29
2022-10-06T02:31:24.559Z,12.30
2022-10-06T02:36:27.840Z,12.28
2022-10-06T02:41:31.256Z,12.24
2022-10-06T02:46:34.342Z,12.20
2022-10-06T02:51:37.374Z,12.19
2022-10-06T02:56:40.273Z,12.17
2022-10-06T03:01:43.316Z,12.11
2022-10-06T03:06:46.488Z,12.11
2022-10-06T03:11:49.494Z,12.08
2022-10-06T03:16:52.816Z,12.02
2022-10-06T03:21:55.602Z,12.02
2022-10-06T03:26:58.616Z,12.02
2022-10-06T03:32:01.379Z,12.01
2022-10-06T03:37:04.326Z,12.00
2022-10-06T03:42:07.226Z,11.95
2022-10-06T03:47:14.574Z,11.98
2022-10-06T03:52:25.064Z,12.07
2022-10-06T03:57:28.947Z,12.10
2022-10-06T04:02:31.886Z,12.11
2022-10-06T04:07:34.854Z,12.17
2022-10-06T04:12:37.760Z,12.11
2022-10-06T04:17:40.662Z,12.01
2022-10-06T04:22:43.576Z,12.07
2022-10-06T04:27:46.469Z,12.13
2022-10-06T04:32:49.274Z,12.17
2022-10-06T04:37:53.095Z,12.19
2022-10-06T04:42:56.468Z,12.25
2022-10-06T04:47:59.320Z,12.40
2022-10-06T04:53:02.218Z,12.63
2022-10-06T04:58:05.120Z,12.83
2022-10-06T05:03:08.026Z,12.96
2022-10-06T05:08:10.940Z,13.10
2022-10-06T05:13:14.472Z,13.57
2022-10-06T05:18:17.352Z,13.72
2022-10-06T05:23:24.358Z,13.70
2022-10-06T05:28:30.305Z,13.76
2022-10-06T05:33:35.696Z,13.96
2022-10-06T05:38:39.208Z,14.31
2022-10-06T05:43:42.829Z,14.51
2022-10-06T05:49:10.526Z,14.53
2022-10-06T05:54:14.545Z,14.46
2022-10-06T05:59:17.462Z,14.49
2022-10-06T06:04:20.666Z,14.49
2022-10-06T06:09:23.766Z,14.47
2022-10-06T06:14:45.411Z,14.55
2022-10-06T06:19:48.556Z,14.69
2022-10-06T06:24:51.381Z,14.93
2022-10-06T06:29:54.326Z,15.17
2022-10-06T06:34:57.546Z,15.45
2022-10-06T06:40:00.449Z,15.97
2022-10-06T06:45:03.550Z,16.64
2022-10-06T06:50:10.541Z,19.48
2022-10-06T06:55:15.257Z,23.03
2022-10-06T07:00:18.304Z,25.77
2022-10-06T07:05:21.516Z,26.94
2022-10-06T07:10:27.799Z,27.73
2022-10-06T07:15:52.599Z,28.32
2022-10-06T07:21:14.466Z,28.68
2022-10-06T07:26:20.336Z,29.16
2022-10-06T07:31:23.189Z,29.30
2022-10-06T07:36:26.146Z,29.30
2022-10-06T07:41:31.559Z,29.40
2022-10-06T07:46:34.375Z,28.78
2022-10-06T07:51:37.321Z,28.42
2022-10-06T07:56:40.325Z,27.32
2022-10-06T08:01:46.359Z,25.22
2022-10-06T08:06:49.714Z,23.43
2022-10-06T08:11:53.128Z,23.63
2022-10-06T08:16:56.034Z,24.91
2022-10-06T08:22:02.436Z,24.26
2022-10-06T08:27:09.930Z,22.77
2022-10-06T08:32:12.834Z,21.72
2022-10-06T08:37:20.312Z,21.21
2022-10-06T08:42:33.362Z,20.88
2022-10-06T08:47:37.181Z,20.45
2022-10-06T08:52:52.419Z,20.13
2022-10-06T08:58:13.953Z,20.01
2022-10-06T09:03:24.128Z,19.99
2022-10-06T09:08:58.667Z,19.93
2022-10-06T09:14:12.941Z,19.72
2022-10-06T09:19:24.796Z,20.16
2022-10-06T09:24:47.580Z,20.89
2022-10-06T09:29:51.677Z,20.82
2022-10-06T09:34:57.502Z,20.67
2022-10-06T09:40:00.430Z,20.46
2022-10-06T09:45:06.768Z,20.27
2022-10-06T09:50:12.398Z,20.15
2022-10-06T09:55:19.387Z,20.20
2022-10-06T10:00:48.242Z,20.36
2022-10-06T10:05:55.052Z,20.32
2022-10-06T10:11:28.600Z,20.22
2022-10-06T10:16:35.753Z,19.91
2022-10-06T10:21:41.386Z,19.60
2022-10-06T10:26:55.349Z,19.49
2022-10-06T10:32:13.012Z,19.36
2022-10-06T10:37:37.407Z,19.08
2022-10-06T10:42:45.672Z,19.09
2022-10-06T10:47:49.565Z,19.27
2022-10-06T10:52:57.401Z,19.54
2022-10-06T10:58:11.960Z,19.96
2022-10-06T11:03:14.758Z,20.18
2022-10-06T11:08:29.954Z,20.17
2022-10-06T11:13:38.488Z,19.95
2022-10-06T11:19:20.816Z,19.42
2022-10-06T11:24:31.990Z,18.75
2022-10-06T11:29:40.859Z,18.33
2022-10-06T11:34:48.346Z,18.03
2022-10-06T11:39:58.714Z,17.91
2022-10-06T11:45:14.043Z,18.17
2022-10-06T11:50:32.208Z,18.57
2022-10-06T11:55:35.112Z,18.65
2022-10-06T12:00:38.016Z,18.48
2022-10-06T12:05:57.264Z,18.29
2022-10-06T12:11:03.071Z,18.08
2022-10-06T12:22:00.041Z,18.07
2022-10-06T12:27:24.987Z,18.30
2022-10-06T12:32:53.712Z,18.32
2022-10-06T12:38:00.645Z,18.31
2022-10-06T12:43:18.361Z,18.25
2022-10-06T12:48:23.927Z,18.28
2022-10-06T12:53:36.333Z,18.37
2022-10-06T12:58:39.903Z,18.48
2022-10-06T13:03:47.999Z,18.52
2022-10-06T13:09:14.155Z,18.52
2022-10-06T13:14:17.458Z,18.45
2022-10-06T13:19:28.442Z,18.37
2022-10-06T13:24:31.481Z,18.44
2022-10-06T13:29:34.466Z,18.53
2022-10-06T13:34:43.433Z,18.60
2022-10-06T13:39:46.796Z,18.68
2022-10-06T13:45:03.144Z,18.65
2022-10-06T13:50:07.829Z,18.50
2022-10-06T13:55:27.187Z,18.40
2022-10-06T14:00:32.380Z,18.25
2022-10-06T14:05:41.917Z,18.08
2022-10-06T14:10:52.607Z,17.92
2022-10-06T14:16:00.671Z,17.73
2022-10-06T14:21:19.282Z,17.58
2022-10-06T14:26:31.313Z,17.48
2022-10-06T14:31:35.609Z,17.45
2022-10-06T14:36:38.519Z,17.40
2022-10-06T14:41:42.072Z,17.34
2022-10-06T14:46:49.377Z,17.17
2022-10-06T14:51:56.471Z,16.96
2022-10-06T14:56:59.476Z,16.75
2022-10-06T15:02:03.304Z,16.54
2022-10-06T15:07:25.151Z,16.31
2022-10-06T15:12:33.114Z,16.07
2022-10-06T15:17:37.925Z,15.85
2022-10-06T15:22:41.972Z,15.63
2022-10-06T15:28:03.541Z,15.43
2022-10-06T15:33:06.910Z,15.22
2022-10-06T15:38:09.924Z,15.01
2022-10-06T15:43:12.822Z,14.82
2022-10-06T15:48:15.725Z,14.63
2022-10-06T15:53:18.941Z,14.44
2022-10-06T15:58:22.795Z,14.20
2022-10-06T16:03:40.971Z,13.95
2022-10-06T16:08:44.339Z,13.66
2022-10-06T16:13:52.054Z,13.41
2022-10-06T16:18:55.165Z,13.15
2022-10-06T16:24:00.750Z,12.90
2022-10-06T16:29:04.561Z,12.85
2022-10-06T16:34:08.072Z,13.36
2022-10-06T16:39:16.067Z,13.66
2022-10-06T16:44:19.207Z,13.81
2022-10-06T16:49:24.654Z,13.87
2022-10-06T16:54:30.649Z,13.88
2022-10-06T16:59:33.553Z,13.88
2022-10-06T17:04:37.070Z,13.87
2022-10-06T17:09:55.845Z,13.83
2022-10-06T17:15:02.849Z,13.78
2022-10-06T17:20:06.391Z,13.72
2022-10-06T17:25:09.783Z,13.64
2022-10-06T17:30:15.043Z,13.58
2022-10-06T17:35:19.112Z,13.52
2022-10-06T17:40:21.978Z,13.48
2022-10-06T17:45:25.958Z,13.46
2022-10-06T17:50:29.013Z,13.43
2022-10-06T17:55:31.916Z,13.39
2022-10-06T18:00:34.927Z,13.34
2022-10-06T18:05:39.262Z,13.34
2022-10-06T18:11:35.625Z,13.24
2022-10-06T18:16:39.728Z,13.06
2022-10-06T18:21:44.710Z,12.88
2022-10-06T18:26:50.026Z,12.75
2022-10-06T18:31:53.896Z,12.66
2022-10-06T18:36:56.894Z,12.58
2022-10-06T18:42:03.043Z,12.51
2022-10-06T18:47:24.618Z,12.45
2022-10-06T18:52:27.623Z,12.37
2022-10-06T18:57:30.531Z,12.29
2022-10-06T19:02:33.346Z,12.21
2022-10-06T19:07:36.242Z,12.13
2022-10-06T19:12:39.243Z,12.06
2022-10-06T19:17:45.830Z,11.97
2022-10-06T19:22:48.636Z,11.86
2022-10-06T19:27:54.509Z,11.75
2022-10-06T19:32:57.438Z,11.70
2022-10-06T19:38:00.318Z,11.65
2022-10-06T19:43:03.258Z,11.62
2022-10-06T19:48:06.122Z,11.58
2022-10-06T19:53:09.030Z,11.50
2022-10-06T19:58:11.827Z,11.42
2022-10-06T20:03:14.561Z,11.36
2022-10-06T20:08:17.891Z,11.34
2022-10-06T20:13:20.645Z,11.29
2022-10-06T20:18:25.593Z,11.28
2022-10-06T20:23:28.397Z,11.26
2022-10-06T20:28:33.875Z,11.23
2022-10-06T20:33:36.868Z,11.22
2022-10-06T20:38:59.329Z,11.21
2022-10-06T20:44:04.075Z,11.20
2022-10-06T20:49:09.644Z,11.16
2022-10-06T20:54:14.121Z,11.11
2022-10-06T20:59:18.425Z,11.07
2022-10-06T21:04:22.050Z,11.06
2022-10-06T21:09:25.071Z,11.05
2022-10-06T21:14:28.373Z,11.06
2022-10-06T21:19:31.789Z,11.05
2022-10-06T21:24:34.811Z,11.01
2022-10-06T21:29:38.206Z,10.99
2022-10-06T21:34:41.212Z,10.96
2022-10-06T21:39:44.118Z,10.94
2022-10-06T21:44:47.121Z,10.92
2022-10-06T21:49:50.025Z,10.90
2022-10-06T21:54:53.058Z,10.85
2022-10-06T21:59:55.936Z,10.82
2022-10-06T22:04:59.148Z,10.82
2022-10-06T22:10:02.271Z,10.84
2022-10-06T22:15:05.879Z,10.85
2022-10-06T22:20:09.577Z,10.78
2022-10-06T22:25:12.504Z,10.75
2022-10-06T22:30:15.407Z,10.74
2022-10-06T22:35:18.314Z,10.71
2022-10-06T22:40:21.214Z,10.68
2022-10-06T22:45:24.227Z,10.69
2022-10-06T22:50:27.132Z,10.64
2022-10-06T22:55:30.028Z,10.60
2022-10-06T23:00:33.123Z,10.57
2022-10-06T23:05:37.303Z,10.56
2022-10-06T23:10:40.175Z,10.51
2022-10-06T23:15:43.810Z,10.48
2022-10-06T23:20:46.700Z,10.44
2022-10-06T23:25:49.606Z,10.42
2022-10-06T23:30:52.507Z,10.41
2022-10-06T23:35:57.871Z,10.42
2022-10-06T23:41:00.978Z,10.42
2022-10-06T23:46:04.528Z,10.43
2022-10-06T23:51:13.520Z,10.42
2022-10-06T23:56:16.653Z,10.38
